sensor_id;sensor_type;location;lat;lon;timestamp;pressure;altitude;pressure_sealevel;temperature;humidity
20119;BME280;10220;42.716;23.306;2023-04-16T00:02:12;94763.63;;;12.57;79.74
20119;BME280;10220;42.716;23.306;2023-04-16T00:04:38;94757.72;;;12.50;82.41
20119;BME280;10220;42.716;23.306;2023-04-16T00:07:03;94750.97;;;12.72;80.83
20119;BME280;10220;42.716;23.306;2023-04-16T00:09:28;94752.38;;;12.86;85.40
20119;BME280;10220;42.716;23.306;2023-04-16T00:11:54;94739.78;;;12.72;86.17
20119;BME280;10220;42.716;23.306;2023-04-16T00:14:20;94752.13;;;12.13;90.29
20119;BME280;10220;42.716;23.306;2023-04-16T00:16:45;94758.72;;;11.86;94.49
20119;BME280;10220;42.716;23.306;2023-04-16T00:19:10;94740.38;;;11.70;96.44
20119;BME280;10220;42.716;23.306;2023-04-16T00:21:36;94762.66;;;11.59;97.31
20119;BME280;10220;42.716;23.306;2023-04-16T00:24:01;94753.59;;;11.50;95.31
20119;BME280;10220;42.716;23.306;2023-04-16T00:26:27;94757.59;;;11.46;91.94
20119;BME280;10220;42.716;23.306;2023-04-16T00:28:52;94760.72;;;11.37;90.50
20119;BME280;10220;42.716;23.306;2023-04-16T00:31:17;94751.66;;;11.10;90.42
20119;BME280;10220;42.716;23.306;2023-04-16T00:33:50;94758.72;;;11.03;90.49
20119;BME280;10220;42.716;23.306;2023-04-16T00:36:15;94756.66;;;10.69;92.20
20119;BME280;10220;42.716;23.306;2023-04-16T00:38:40;94764.31;;;10.58;92.02
20119;BME280;10220;42.716;23.306;2023-04-16T00:41:06;94762.06;;;10.44;92.22
20119;BME280;10220;42.716;23.306;2023-04-16T00:43:31;94750.38;;;10.35;93.23
20119;BME280;10220;42.716;23.306;2023-04-16T00:45:57;94759.91;;;10.41;93.76
20119;BME280;10220;42.716;23.306;2023-04-16T00:48:23;94753.03;;;10.28;94.38
20119;BME280;10220;42.716;23.306;2023-04-16T00:50:48;94770.69;;;10.38;95.48
20119;BME280;10220;42.716;23.306;2023-04-16T00:53:14;94758.19;;;10.28;95.14
20119;BME280;10220;42.716;23.306;2023-04-16T00:55:40;94762.97;;;10.31;95.38
20119;BME280;10220;42.716;23.306;2023-04-16T00:58:05;94755.72;;;10.40;94.39
20119;BME280;10220;42.716;23.306;2023-04-16T01:00:31;94726.53;;;10.33;93.71
20119;BME280;10220;42.716;23.306;2023-04-16T01:02:57;94765.88;;;10.41;93.40
20119;BME280;10220;42.716;23.306;2023-04-16T01:05:24;94743.09;;;10.50;92.86
20119;BME280;10220;42.716;23.306;2023-04-16T01:07:50;94753.63;;;10.30;92.96
20119;BME280;10220;42.716;23.306;2023-04-16T01:10:15;94745.16;;;10.17;94.73
20119;BME280;10220;42.716;23.306;2023-04-16T01:12:40;94732.22;;;9.86;96.03
20119;BME280;10220;42.716;23.306;2023-04-16T01:15:06;94747.69;;;9.99;96.90
20119;BME280;10220;42.716;23.306;2023-04-16T01:17:32;94748.03;;;10.09;97.90
20119;BME280;10220;42.716;23.306;2023-04-16T01:19:58;94749.63;;;10.03;96.74
20119;BME280;10220;42.716;23.306;2023-04-16T01:22:24;94748.84;;;10.03;98.26
20119;BME280;10220;42.716;23.306;2023-04-16T01:24:49;94740.22;;;10.15;99.12
20119;BME280;10220;42.716;23.306;2023-04-16T01:27:15;94753.56;;;10.61;98.03
20119;BME280;10220;42.716;23.306;2023-04-16T01:29:40;94745.53;;;10.45;95.16
20119;BME280;10220;42.716;23.306;2023-04-16T01:32:06;94739.78;;;10.43;96.16
20119;BME280;10220;42.716;23.306;2023-04-16T01:34:31;94745.13;;;10.23;96.57
20119;BME280;10220;42.716;23.306;2023-04-16T01:36:56;94739.72;;;9.94;97.53
20119;BME280;10220;42.716;23.306;2023-04-16T01:39:22;94758.25;;;9.91;98.28
20119;BME280;10220;42.716;23.306;2023-04-16T01:41:47;94745.38;;;10.15;99.24
20119;BME280;10220;42.716;23.306;2023-04-16T01:44:13;94738.81;;;10.37;97.74
20119;BME280;10220;42.716;23.306;2023-04-16T01:46:38;94734.53;;;10.91;99.13
20119;BME280;10220;42.716;23.306;2023-04-16T01:49:04;94724.53;;;10.95;93.16
20119;BME280;10220;42.716;23.306;2023-04-16T01:51:31;94723.69;;;10.76;93.28
20119;BME280;10220;42.716;23.306;2023-04-16T01:53:57;94724.31;;;10.54;95.09
20119;BME280;10220;42.716;23.306;2023-04-16T01:56:22;94725.78;;;10.68;96.40
20119;BME280;10220;42.716;23.306;2023-04-16T01:58:48;94711.22;;;10.49;97.01
20119;BME280;10220;42.716;23.306;2023-04-16T02:01:13;94716.50;;;10.18;98.88
20119;BME280;10220;42.716;23.306;2023-04-16T02:03:39;94724.75;;;10.51;97.95
20119;BME280;10220;42.716;23.306;2023-04-16T02:06:05;94721.59;;;10.67;98.49
20119;BME280;10220;42.716;23.306;2023-04-16T02:08:30;94725.25;;;11.02;98.80
20119;BME280;10220;42.716;23.306;2023-04-16T02:10:56;94723.66;;;11.48;96.85
20119;BME280;10220;42.716;23.306;2023-04-16T02:13:22;94728.00;;;11.72;93.95
20119;BME280;10220;42.716;23.306;2023-04-16T02:15:50;94726.72;;;12.03;93.74
20119;BME280;10220;42.716;23.306;2023-04-16T02:18:16;94710.81;;;12.00;92.58
20119;BME280;10220;42.716;23.306;2023-04-16T02:20:42;94717.66;;;11.94;91.15
20119;BME280;10220;42.716;23.306;2023-04-16T02:23:08;94699.97;;;10.97;89.41
20119;BME280;10220;42.716;23.306;2023-04-16T02:25:41;94704.50;;;11.02;96.52
20119;BME280;10220;42.716;23.306;2023-04-16T02:28:08;94712.19;;;11.26;92.38
20119;BME280;10220;42.716;23.306;2023-04-16T02:30:37;94718.03;;;11.04;91.94
20119;BME280;10220;42.716;23.306;2023-04-16T02:33:04;94721.06;;;10.65;92.63
20119;BME280;10220;42.716;23.306;2023-04-16T02:35:34;94709.94;;;10.40;95.30
20119;BME280;10220;42.716;23.306;2023-04-16T02:38:01;94712.31;;;10.59;94.69
20119;BME280;10220;42.716;23.306;2023-04-16T02:40:27;94709.91;;;10.82;98.41
20119;BME280;10220;42.716;23.306;2023-04-16T02:42:53;94714.72;;;11.32;95.36
20119;BME280;10220;42.716;23.306;2023-04-16T02:45:19;94709.97;;;11.76;92.50
20119;BME280;10220;42.716;23.306;2023-04-16T02:47:46;94706.84;;;12.09;90.96
20119;BME280;10220;42.716;23.306;2023-04-16T02:50:11;94704.63;;;12.12;88.65
20119;BME280;10220;42.716;23.306;2023-04-16T02:52:37;94704.75;;;12.17;89.00
20119;BME280;10220;42.716;23.306;2023-04-16T02:55:02;94677.53;;;12.20;89.97
20119;BME280;10220;42.716;23.306;2023-04-16T02:57:28;94701.72;;;12.54;88.73
20119;BME280;10220;42.716;23.306;2023-04-16T02:59:53;94703.88;;;12.69;87.08
20119;BME280;10220;42.716;23.306;2023-04-16T03:02:18;94680.59;;;12.62;89.44
20119;BME280;10220;42.716;23.306;2023-04-16T03:04:44;94686.69;;;12.68;87.39
20119;BME280;10220;42.716;23.306;2023-04-16T03:07:10;94698.31;;;12.65;86.36
20119;BME280;10220;42.716;23.306;2023-04-16T03:09:37;94705.22;;;12.60;87.00
20119;BME280;10220;42.716;23.306;2023-04-16T03:12:02;94706.13;;;12.54;87.04
20119;BME280;10220;42.716;23.306;2023-04-16T03:14:28;94710.06;;;12.56;88.61
20119;BME280;10220;42.716;23.306;2023-04-16T03:16:53;94702.28;;;12.68;87.64
20119;BME280;10220;42.716;23.306;2023-04-16T03:19:19;94709.63;;;12.59;85.69
20119;BME280;10220;42.716;23.306;2023-04-16T03:21:44;94710.97;;;12.28;89.43
20119;BME280;10220;42.716;23.306;2023-04-16T03:24:10;94701.25;;;12.12;89.24
20119;BME280;10220;42.716;23.306;2023-04-16T03:26:35;94722.38;;;12.38;91.56
20119;BME280;10220;42.716;23.306;2023-04-16T03:29:01;94722.19;;;12.62;91.53
20119;BME280;10220;42.716;23.306;2023-04-16T03:31:26;94711.88;;;12.67;90.13
20119;BME280;10220;42.716;23.306;2023-04-16T03:33:52;94714.66;;;12.20;88.85
20119;BME280;10220;42.716;23.306;2023-04-16T03:36:17;94719.00;;;11.56;95.51
20119;BME280;10220;42.716;23.306;2023-04-16T03:38:43;94726.78;;;11.56;93.49
20119;BME280;10220;42.716;23.306;2023-04-16T03:41:09;94715.75;;;11.90;95.40
20119;BME280;10220;42.716;23.306;2023-04-16T03:43:34;94725.38;;;12.12;93.71
20119;BME280;10220;42.716;23.306;2023-04-16T03:45:59;94731.13;;;12.03;91.22
20119;BME280;10220;42.716;23.306;2023-04-16T03:48:25;94733.84;;;12.08;92.76
20119;BME280;10220;42.716;23.306;2023-04-16T03:50:50;94726.78;;;11.56;90.08
20119;BME280;10220;42.716;23.306;2023-04-16T03:53:16;94716.78;;;11.42;93.55
20119;BME280;10220;42.716;23.306;2023-04-16T03:55:42;94726.44;;;11.35;94.74
20119;BME280;10220;42.716;23.306;2023-04-16T03:58:07;94717.25;;;11.21;96.34
20119;BME280;10220;42.716;23.306;2023-04-16T04:00:33;94728.28;;;11.46;97.98
20119;BME280;10220;42.716;23.306;2023-04-16T04:02:58;94731.78;;;11.22;97.05
20119;BME280;10220;42.716;23.306;2023-04-16T04:05:24;94734.66;;;10.78;99.82
20119;BME280;10220;42.716;23.306;2023-04-16T04:07:49;94737.72;;;10.51;100.00
20119;BME280;10220;42.716;23.306;2023-04-16T04:10:15;94743.22;;;10.37;100.00
20119;BME280;10220;42.716;23.306;2023-04-16T04:12:41;94738.59;;;9.84;100.00
20119;BME280;10220;42.716;23.306;2023-04-16T04:15:07;94721.94;;;10.10;100.00
20119;BME280;10220;42.716;23.306;2023-04-16T04:17:32;94738.66;;;10.56;100.00
20119;BME280;10220;42.716;23.306;2023-04-16T04:19:58;94745.75;;;10.43;100.00
20119;BME280;10220;42.716;23.306;2023-04-16T04:22:23;94737.53;;;11.06;100.00
20119;BME280;10220;42.716;23.306;2023-04-16T04:24:49;94750.72;;;11.22;100.00
20119;BME280;10220;42.716;23.306;2023-04-16T04:27:14;94736.31;;;11.26;96.56
20119;BME280;10220;42.716;23.306;2023-04-16T04:29:40;94736.00;;;11.34;96.17
20119;BME280;10220;42.716;23.306;2023-04-16T04:32:05;94741.56;;;11.20;94.25
20119;BME280;10220;42.716;23.306;2023-04-16T04:34:31;94735.16;;;11.05;97.12
20119;BME280;10220;42.716;23.306;2023-04-16T04:36:56;94765.66;;;10.67;97.58
20119;BME280;10220;42.716;23.306;2023-04-16T04:39:21;94752.06;;;10.71;100.00
20119;BME280;10220;42.716;23.306;2023-04-16T04:41:47;94761.28;;;10.85;100.00
20119;BME280;10220;42.716;23.306;2023-04-16T04:44:13;94760.56;;;10.54;100.00
20119;BME280;10220;42.716;23.306;2023-04-16T04:46:39;94754.59;;;10.96;100.00
20119;BME280;10220;42.716;23.306;2023-04-16T04:49:04;94761.66;;;11.42;100.00
20119;BME280;10220;42.716;23.306;2023-04-16T04:51:30;94762.72;;;11.71;100.00
20119;BME280;10220;42.716;23.306;2023-04-16T04:53:56;94767.25;;;11.75;98.36
20119;BME280;10220;42.716;23.306;2023-04-16T04:56:21;94761.66;;;11.60;97.17
20119;BME280;10220;42.716;23.306;2023-04-16T04:58:48;94770.59;;;11.93;97.56
20119;BME280;10220;42.716;23.306;2023-04-16T05:01:14;94763.78;;;11.52;98.24
20119;BME280;10220;42.716;23.306;2023-04-16T05:03:39;94770.09;;;12.14;97.32
20119;BME280;10220;42.716;23.306;2023-04-16T05:06:05;94765.72;;;12.26;93.30
20119;BME280;10220;42.716;23.306;2023-04-16T05:08:31;94762.91;;;12.50;91.87
20119;BME280;10220;42.716;23.306;2023-04-16T05:10:56;94770.09;;;12.14;89.88
20119;BME280;10220;42.716;23.306;2023-04-16T05:13:22;94723.94;;;11.11;91.70
20119;BME280;10220;42.716;23.306;2023-04-16T05:15:47;94767.72;;;11.36;97.79
20119;BME280;10220;42.716;23.306;2023-04-16T05:18:12;94768.34;;;11.97;96.64
20119;BME280;10220;42.716;23.306;2023-04-16T05:20:38;94753.44;;;12.33;92.52
20119;BME280;10220;42.716;23.306;2023-04-16T05:23:03;94763.84;;;12.44;90.91
20119;BME280;10220;42.716;23.306;2023-04-16T05:25:28;94767.88;;;11.23;94.31
20119;BME280;10220;42.716;23.306;2023-04-16T05:27:54;94770.41;;;11.77;98.65
20119;BME280;10220;42.716;23.306;2023-04-16T05:30:19;94766.88;;;12.30;97.06
20119;BME280;10220;42.716;23.306;2023-04-16T05:32:45;94768.34;;;12.49;94.62
20119;BME280;10220;42.716;23.306;2023-04-16T05:35:10;94764.28;;;12.53;94.39
20119;BME280;10220;42.716;23.306;2023-04-16T05:37:36;94768.50;;;12.77;91.54
20119;BME280;10220;42.716;23.306;2023-04-16T05:40:01;94754.16;;;12.74;90.41
20119;BME280;10220;42.716;23.306;2023-04-16T05:42:26;94756.22;;;12.95;88.85
20119;BME280;10220;42.716;23.306;2023-04-16T05:44:52;94758.34;;;12.98;88.36
20119;BME280;10220;42.716;23.306;2023-04-16T05:47:17;94762.53;;;13.10;87.07
20119;BME280;10220;42.716;23.306;2023-04-16T05:49:43;94763.63;;;12.57;89.58
20119;BME280;10220;42.716;23.306;2023-04-16T05:52:08;94764.75;;;12.61;94.03
20119;BME280;10220;42.716;23.306;2023-04-16T05:54:34;94761.19;;;12.96;91.16
20119;BME280;10220;42.716;23.306;2023-04-16T05:57:00;94759.56;;;13.18;87.50
20119;BME280;10220;42.716;23.306;2023-04-16T05:59:26;94743.41;;;13.16;86.19
20119;BME280;10220;42.716;23.306;2023-04-16T06:01:51;94752.53;;;13.42;87.48
20119;BME280;10220;42.716;23.306;2023-04-16T06:04:17;94764.97;;;13.28;82.59
20119;BME280;10220;42.716;23.306;2023-04-16T06:06:42;94746.56;;;13.30;83.05
20119;BME280;10220;42.716;23.306;2023-04-16T06:09:09;94733.38;;;13.48;82.48
20119;BME280;10220;42.716;23.306;2023-04-16T06:11:34;94738.22;;;13.55;81.53
20119;BME280;10220;42.716;23.306;2023-04-16T06:14:02;94759.22;;;13.38;80.04
20119;BME280;10220;42.716;23.306;2023-04-16T06:16:28;94760.72;;;13.11;82.41
20119;BME280;10220;42.716;23.306;2023-04-16T06:18:53;94758.84;;;13.46;86.42
20119;BME280;10220;42.716;23.306;2023-04-16T06:21:19;94758.72;;;13.52;81.78
20119;BME280;10220;42.716;23.306;2023-04-16T06:23:44;94733.47;;;13.52;82.10
20119;BME280;10220;42.716;23.306;2023-04-16T06:26:10;94738.06;;;13.34;81.19
20119;BME280;10220;42.716;23.306;2023-04-16T06:28:35;94744.69;;;13.02;84.20
20119;BME280;10220;42.716;23.306;2023-04-16T06:31:00;94754.78;;;12.35;90.11
20119;BME280;10220;42.716;23.306;2023-04-16T06:33:26;94751.09;;;13.11;91.61
20119;BME280;10220;42.716;23.306;2023-04-16T06:35:51;94741.56;;;13.28;88.66
20119;BME280;10220;42.716;23.306;2023-04-16T06:38:17;94737.28;;;13.61;89.41
20119;BME280;10220;42.716;23.306;2023-04-16T06:40:42;94749.97;;;13.58;87.86
20119;BME280;10220;42.716;23.306;2023-04-16T06:43:08;94744.66;;;13.92;86.67
20119;BME280;10220;42.716;23.306;2023-04-16T06:45:33;94748.41;;;13.06;90.12
20119;BME280;10220;42.716;23.306;2023-04-16T06:47:59;94740.69;;;13.90;91.31
20119;BME280;10220;42.716;23.306;2023-04-16T06:50:26;94755.88;;;14.37;87.42
20119;BME280;10220;42.716;23.306;2023-04-16T06:52:53;94752.16;;;14.33;86.12
20119;BME280;10220;42.716;23.306;2023-04-16T06:55:18;94748.53;;;14.50;83.36
20119;BME280;10220;42.716;23.306;2023-04-16T06:57:43;94746.56;;;14.57;82.17
20119;BME280;10220;42.716;23.306;2023-04-16T07:00:09;94745.13;;;14.50;83.31
20119;BME280;10220;42.716;23.306;2023-04-16T07:02:35;94736.53;;;14.49;79.97
20119;BME280;10220;42.716;23.306;2023-04-16T07:05:01;94748.16;;;13.86;85.12
20119;BME280;10220;42.716;23.306;2023-04-16T07:07:26;94751.38;;;13.77;89.24
20119;BME280;10220;42.716;23.306;2023-04-16T07:09:52;94741.75;;;14.49;85.29
20119;BME280;10220;42.716;23.306;2023-04-16T07:12:17;94732.81;;;14.29;86.09
20119;BME280;10220;42.716;23.306;2023-04-16T07:14:44;94749.13;;;14.08;89.28
20119;BME280;10220;42.716;23.306;2023-04-16T07:17:09;94751.78;;;14.24;89.40
20119;BME280;10220;42.716;23.306;2023-04-16T07:19:34;94736.91;;;13.69;91.29
20119;BME280;10220;42.716;23.306;2023-04-16T07:22:01;94745.94;;;13.78;94.77
20119;BME280;10220;42.716;23.306;2023-04-16T07:24:26;94747.06;;;14.10;91.81
20119;BME280;10220;42.716;23.306;2023-04-16T07:26:52;94737.22;;;14.01;91.82
20119;BME280;10220;42.716;23.306;2023-04-16T07:29:17;94739.03;;;14.11;91.64
20119;BME280;10220;42.716;23.306;2023-04-16T07:31:43;94746.72;;;14.51;88.93
20119;BME280;10220;42.716;23.306;2023-04-16T07:34:12;94741.13;;;14.59;89.52
20119;BME280;10220;42.716;23.306;2023-04-16T07:36:37;94748.75;;;14.16;89.43
20119;BME280;10220;42.716;23.306;2023-04-16T07:39:03;94739.28;;;14.26;89.27
20119;BME280;10220;42.716;23.306;2023-04-16T07:41:29;94739.28;;;14.26;90.28
20119;BME280;10220;42.716;23.306;2023-04-16T07:43:55;94743.25;;;14.62;87.42
20119;BME280;10220;42.716;23.306;2023-04-16T07:46:20;94736.22;;;14.46;87.24
20119;BME280;10220;42.716;23.306;2023-04-16T07:48:46;94751.06;;;14.62;89.12
20119;BME280;10220;42.716;23.306;2023-04-16T07:51:12;94717.91;;;14.57;89.90
20119;BME280;10220;42.716;23.306;2023-04-16T07:53:37;94711.00;;;14.68;86.93
20119;BME280;10220;42.716;23.306;2023-04-16T07:56:03;94727.00;;;14.92;88.23
20119;BME280;10220;42.716;23.306;2023-04-16T07:58:28;94729.81;;;15.07;82.91
20119;BME280;10220;42.716;23.306;2023-04-16T08:00:54;94744.94;;;15.05;84.96
20119;BME280;10220;42.716;23.306;2023-04-16T08:03:19;94745.03;;;14.94;85.82
20119;BME280;10220;42.716;23.306;2023-04-16T08:05:45;94750.19;;;14.40;87.95
20119;BME280;10220;42.716;23.306;2023-04-16T08:08:11;94741.47;;;15.00;88.57
20119;BME280;10220;42.716;23.306;2023-04-16T08:10:38;94715.09;;;14.80;86.51
20119;BME280;10220;42.716;23.306;2023-04-16T08:13:03;94739.38;;;14.80;85.45
20119;BME280;10220;42.716;23.306;2023-04-16T08:15:29;94721.88;;;14.97;83.26
20119;BME280;10220;42.716;23.306;2023-04-16T08:17:55;94731.81;;;15.59;79.76
20119;BME280;10220;42.716;23.306;2023-04-16T08:20:20;94742.94;;;15.50;76.22
20119;BME280;10220;42.716;23.306;2023-04-16T08:22:47;94731.72;;;14.74;82.30
20119;BME280;10220;42.716;23.306;2023-04-16T08:25:13;94728.97;;;15.39;83.88
20119;BME280;10220;42.716;23.306;2023-04-16T08:27:38;94734.44;;;15.38;78.67
20119;BME280;10220;42.716;23.306;2023-04-16T08:30:04;94709.38;;;15.58;80.70
20119;BME280;10220;42.716;23.306;2023-04-16T08:32:30;94729.97;;;15.81;77.68
20119;BME280;10220;42.716;23.306;2023-04-16T08:34:56;94728.50;;;15.90;75.89
20119;BME280;10220;42.716;23.306;2023-04-16T08:37:21;94717.19;;;16.32;69.86
20119;BME280;10220;42.716;23.306;2023-04-16T08:39:47;94711.38;;;16.25;69.99
20119;BME280;10220;42.716;23.306;2023-04-16T08:42:30;94711.00;;;16.17;70.71
20119;BME280;10220;42.716;23.306;2023-04-16T08:45:05;94712.75;;;16.06;71.33
20119;BME280;10220;42.716;23.306;2023-04-16T08:47:33;94689.03;;;16.13;71.30
20119;BME280;10220;42.716;23.306;2023-04-16T08:49:59;94699.28;;;16.24;69.89
20119;BME280;10220;42.716;23.306;2023-04-16T08:52:27;94689.53;;;16.77;67.92
20119;BME280;10220;42.716;23.306;2023-04-16T08:55:11;94695.16;;;17.01;67.47
20119;BME280;10220;42.716;23.306;2023-04-16T08:57:38;94690.91;;;16.48;70.10
20119;BME280;10220;42.716;23.306;2023-04-16T09:00:10;94703.19;;;16.84;68.83
20119;BME280;10220;42.716;23.306;2023-04-16T09:02:35;94697.88;;;17.20;64.85
20119;BME280;10220;42.716;23.306;2023-04-16T09:05:03;94692.47;;;16.86;66.96
20119;BME280;10220;42.716;23.306;2023-04-16T09:07:30;94687.34;;;16.64;69.67
20119;BME280;10220;42.716;23.306;2023-04-16T09:09:58;94689.44;;;16.62;68.27
20119;BME280;10220;42.716;23.306;2023-04-16T09:12:24;94670.97;;;16.38;70.57
20119;BME280;10220;42.716;23.306;2023-04-16T09:14:50;94665.19;;;16.36;69.57
20119;BME280;10220;42.716;23.306;2023-04-16T09:17:16;94674.03;;;16.35;71.25
20119;BME280;10220;42.716;23.306;2023-04-16T09:19:42;94685.09;;;16.78;68.27
20119;BME280;10220;42.716;23.306;2023-04-16T09:22:07;94683.63;;;16.97;64.90
20119;BME280;10220;42.716;23.306;2023-04-16T09:24:33;94675.03;;;17.01;64.76
20119;BME280;10220;42.716;23.306;2023-04-16T09:26:59;94674.81;;;17.73;62.86
20119;BME280;10220;42.716;23.306;2023-04-16T09:29:35;94684.38;;;17.38;59.72
20119;BME280;10220;42.716;23.306;2023-04-16T09:32:05;94675.41;;;18.10;59.87
20119;BME280;10220;42.716;23.306;2023-04-16T09:34:52;94667.00;;;18.03;57.57
20119;BME280;10220;42.716;23.306;2023-04-16T09:37:18;94671.75;;;18.76;59.16
20119;BME280;10220;42.716;23.306;2023-04-16T09:39:44;94665.91;;;19.18;57.16
20119;BME280;10220;42.716;23.306;2023-04-16T09:42:10;94674.53;;;19.34;55.76
20119;BME280;10220;42.716;23.306;2023-04-16T09:44:37;94680.34;;;19.21;53.81
20119;BME280;10220;42.716;23.306;2023-04-16T09:47:06;94679.13;;;18.64;55.20
20119;BME280;10220;42.716;23.306;2023-04-16T09:49:33;94686.69;;;18.16;55.43
20119;BME280;10220;42.716;23.306;2023-04-16T09:52:00;94677.41;;;17.03;60.07
20119;BME280;10220;42.716;23.306;2023-04-16T09:54:26;94650.97;;;17.80;62.70
20119;BME280;10220;42.716;23.306;2023-04-16T09:56:55;94659.44;;;18.22;57.64
20119;BME280;10220;42.716;23.306;2023-04-16T09:59:22;94658.91;;;18.59;62.13
20119;BME280;10220;42.716;23.306;2023-04-16T10:01:48;94649.22;;;18.55;59.37
20119;BME280;10220;42.716;23.306;2023-04-16T10:04:15;94651.81;;;18.45;58.60
20119;BME280;10220;42.716;23.306;2023-04-16T10:06:41;94653.28;;;17.62;60.38
20119;BME280;10220;42.716;23.306;2023-04-16T10:09:07;94658.28;;;17.63;62.34
20119;BME280;10220;42.716;23.306;2023-04-16T10:11:33;94645.16;;;17.58;64.36
20119;BME280;10220;42.716;23.306;2023-04-16T10:13:59;94640.78;;;17.12;62.11
20119;BME280;10220;42.716;23.306;2023-04-16T10:16:25;94656.34;;;17.34;64.79
20119;BME280;10220;42.716;23.306;2023-04-16T10:18:53;94642.31;;;17.69;65.29
20119;BME280;10220;42.716;23.306;2023-04-16T10:21:20;94630.84;;;18.25;61.58
20119;BME280;10220;42.716;23.306;2023-04-16T10:23:46;94629.81;;;18.31;60.28
20119;BME280;10220;42.716;23.306;2023-04-16T10:26:13;94631.63;;;18.65;61.78
20119;BME280;10220;42.716;23.306;2023-04-16T10:28:39;94619.81;;;18.13;60.23
20119;BME280;10220;42.716;23.306;2023-04-16T10:31:07;94620.84;;;17.82;60.65
20119;BME280;10220;42.716;23.306;2023-04-16T10:33:34;94628.78;;;18.22;60.85
20119;BME280;10220;42.716;23.306;2023-04-16T10:36:07;94626.66;;;18.19;57.84
20119;BME280;10220;42.716;23.306;2023-04-16T10:38:34;94625.50;;;18.94;61.33
20119;BME280;10220;42.716;23.306;2023-04-16T10:41:03;94627.91;;;18.86;59.26
20119;BME280;10220;42.716;23.306;2023-04-16T10:43:31;94608.28;;;18.14;56.55
20119;BME280;10220;42.716;23.306;2023-04-16T10:46:19;94619.56;;;18.49;61.52
20119;BME280;10220;42.716;23.306;2023-04-16T10:48:46;94625.81;;;18.83;59.21
20119;BME280;10220;42.716;23.306;2023-04-16T10:51:31;94624.25;;;19.50;55.76
20119;BME280;10220;42.716;23.306;2023-04-16T10:54:23;94622.50;;;19.36;53.55
20119;BME280;10220;42.716;23.306;2023-04-16T10:56:46;94614.78;;;19.49;55.62
20119;BME280;10220;42.716;23.306;2023-04-16T10:59:12;94630.09;;;19.85;51.99
20119;BME280;10220;42.716;23.306;2023-04-16T11:01:43;94584.88;;;18.67;51.33
20119;BME280;10220;42.716;23.306;2023-04-16T11:12:45;94596.09;;;19.55;56.15
20119;BME280;10220;42.716;23.306;2023-04-16T11:15:15;94596.09;;;19.55;54.60
20119;BME280;10220;42.716;23.306;2023-04-16T11:20:20;94587.59;;;19.20;56.50
20119;BME280;10220;42.716;23.306;2023-04-16T11:22:49;94581.28;;;19.74;54.59
20119;BME280;10220;42.716;23.306;2023-04-16T11:25:23;94571.38;;;19.13;51.48
20119;BME280;10220;42.716;23.306;2023-04-16T11:27:49;94572.81;;;19.77;55.29
20119;BME280;10220;42.716;23.306;2023-04-16T11:30:16;94578.41;;;19.66;52.49
20119;BME280;10220;42.716;23.306;2023-04-16T11:32:42;94554.25;;;19.21;55.89
20119;BME280;10220;42.716;23.306;2023-04-16T11:35:18;94572.53;;;19.45;55.71
20119;BME280;10220;42.716;23.306;2023-04-16T11:37:44;94573.69;;;19.20;53.71
20119;BME280;10220;42.716;23.306;2023-04-16T11:40:11;94545.84;;;19.24;54.59
20119;BME280;10220;42.716;23.306;2023-04-16T11:42:38;94564.03;;;19.10;49.95
20119;BME280;10220;42.716;23.306;2023-04-16T11:45:09;94545.41;;;19.50;50.27
20119;BME280;10220;42.716;23.306;2023-04-16T11:47:55;94549.66;;;19.41;50.51
20119;BME280;10220;42.716;23.306;2023-04-16T11:50:24;94536.19;;;19.14;49.15
20119;BME280;10220;42.716;23.306;2023-04-16T11:52:51;94561.97;;;18.97;49.63
20119;BME280;10220;42.716;23.306;2023-04-16T11:55:17;94558.13;;;18.70;50.20
20119;BME280;10220;42.716;23.306;2023-04-16T11:57:43;94535.13;;;19.15;52.16
20119;BME280;10220;42.716;23.306;2023-04-16T12:00:09;94545.66;;;19.00;50.90
20119;BME280;10220;42.716;23.306;2023-04-16T12:02:44;94544.47;;;18.63;51.73
20119;BME280;10220;42.716;23.306;2023-04-16T12:05:33;94536.16;;;18.36;53.19
20119;BME280;10220;42.716;23.306;2023-04-16T12:08:01;94541.66;;;18.40;53.80
20119;BME280;10220;42.716;23.306;2023-04-16T12:10:27;94530.59;;;18.58;53.38
20119;BME280;10220;42.716;23.306;2023-04-16T12:12:52;94527.66;;;18.69;52.00
20119;BME280;10220;42.716;23.306;2023-04-16T12:15:18;94518.88;;;18.16;52.48
20119;BME280;10220;42.716;23.306;2023-04-16T12:17:44;94518.75;;;18.70;54.04
20119;BME280;10220;42.716;23.306;2023-04-16T12:20:11;94511.63;;;18.81;51.28
20119;BME280;10220;42.716;23.306;2023-04-16T12:22:45;94508.91;;;18.95;52.49
20119;BME280;10220;42.716;23.306;2023-04-16T12:25:13;94505.56;;;19.38;52.20
20119;BME280;10220;42.716;23.306;2023-04-16T12:27:46;94502.78;;;19.58;51.03
20119;BME280;10220;42.716;23.306;2023-04-16T12:30:14;94499.75;;;19.41;50.70
20119;BME280;10220;42.716;23.306;2023-04-16T12:32:41;94507.75;;;19.21;50.22
20119;BME280;10220;42.716;23.306;2023-04-16T12:35:08;94501.69;;;19.26;50.34
20119;BME280;10220;42.716;23.306;2023-04-16T12:37:34;94487.00;;;19.20;51.38
20119;BME280;10220;42.716;23.306;2023-04-16T12:40:00;94488.91;;;19.09;50.55
20119;BME280;10220;42.716;23.306;2023-04-16T12:42:26;94490.56;;;18.90;51.65
20119;BME280;10220;42.716;23.306;2023-04-16T12:44:51;94498.13;;;19.07;51.82
20119;BME280;10220;42.716;23.306;2023-04-16T12:47:17;94488.72;;;18.91;52.17
20119;BME280;10220;42.716;23.306;2023-04-16T12:49:42;94483.50;;;18.81;51.90
20119;BME280;10220;42.716;23.306;2023-04-16T12:52:09;94496.59;;;18.96;51.62
20119;BME280;10220;42.716;23.306;2023-04-16T12:54:34;94487.91;;;18.95;52.32
20119;BME280;10220;42.716;23.306;2023-04-16T12:57:00;94489.28;;;18.88;51.79
20119;BME280;10220;42.716;23.306;2023-04-16T12:59:25;94484.91;;;18.69;52.01